Time,TemperatureF,DewpointF,PressureIn,WindDirection,WindDirectionDegrees,WindSpeedMPH,WindSpeedGustMPH,Humidity,HourlyPrecipIn,Conditions,Clouds,dailyrainin,SoftwareType,DateUTC
2013-02-22 00:02:00,40.0,32.0,30.27,SW,215,0.0,2.0,74,0.00,,,0.00,,2013-02-22 05:02:00,
2013-02-22 00:12:00,40.0,32.0,30.27,SW,215,0.0,2.0,74,0.00,,,0.00,,2013-02-22 05:12:00,
2013-02-22 00:22:00,40.0,32.0,30.28,ESE,107,0.0,1.0,72,0.00,,,0.00,,2013-02-22 05:22:00,
2013-02-22 00:32:00,39.0,31.0,30.28,SW,229,0.0,1.0,72,0.00,,,0.00,,2013-02-22 05:32:00,
2013-02-22 00:42:00,39.0,31.0,30.28,SW,229,0.0,1.0,72,0.00,,,0.00,,2013-02-22 05:42:00,
2013-02-22 00:52:00,39.0,31.0,30.30,West,266,0.0,1.0,74,0.00,,,0.00,,2013-02-22 05:52:00,
2013-02-22 01:02:00,39.0,31.0,30.28,NNW,328,0.0,1.0,74,0.00,,,0.00,,2013-02-22 06:02:00,
2013-02-22 01:12:00,39.0,31.0,30.28,NNW,328,0.0,1.0,74,0.00,,,0.00,,2013-02-22 06:12:00,
2013-02-22 01:22:00,39.0,31.0,30.27,SW,232,0.0,3.0,72,0.00,,,0.00,,2013-02-22 06:22:00,
2013-02-22 01:32:00,39.0,31.0,30.27,SW,232,0.0,3.0,72,0.00,,,0.00,,2013-02-22 06:32:00,
2013-02-22 01:42:00,39.0,31.0,30.27,SW,232,0.0,3.0,72,0.00,,,0.00,,2013-02-22 06:42:00,
2013-02-22 01:51:00,39.0,30.0,30.27,NW,311,0.0,3.0,70,0.00,,,0.00,,2013-02-22 06:51:00,
2013-02-22 02:01:00,39.0,30.0,30.27,WNW,283,0.0,3.0,71,0.00,,,0.00,,2013-02-22 07:01:00,
2013-02-22 02:11:00,40.0,32.0,30.29,NW,322,0.0,2.0,72,0.00,,,0.00,,2013-02-22 07:11:00,
2013-02-22 02:22:00,40.0,32.0,30.29,NW,322,0.0,2.0,72,0.00,,,0.00,,2013-02-22 07:22:00,
2013-02-22 02:32:00,40.0,32.0,30.32,West,276,0.0,2.0,72,0.00,,,0.00,,2013-02-22 07:32:00,
2013-02-22 02:42:00,40.0,32.0,30.32,West,276,0.0,2.0,72,0.00,,,0.00,,2013-02-22 07:42:00,
2013-02-22 02:51:00,40.0,32.0,30.35,West,281,0.0,2.0,72,0.00,,,0.00,,2013-02-22 07:51:00,
2013-02-22 03:01:00,39.0,31.0,30.33,WNW,291,0.0,2.0,72,0.00,,,0.00,,2013-02-22 08:01:00,
2013-02-22 03:11:00,39.0,31.0,30.33,WNW,291,0.0,2.0,72,0.00,,,0.00,,2013-02-22 08:11:00,
2013-02-22 03:21:00,39.0,30.0,30.32,NNW,328,0.0,3.0,70,0.00,,,0.00,,2013-02-22 08:21:00,
2013-02-22 03:32:00,39.0,30.0,30.30,NNE,30,1.0,4.0,70,0.00,,,0.00,,2013-02-22 08:32:00,
2013-02-22 03:42:00,39.0,30.0,30.30,NNE,30,1.0,4.0,70,0.00,,,0.00,,2013-02-22 08:42:00,
2013-02-22 03:52:00,39.0,30.0,30.30,NNE,30,1.0,4.0,70,0.00,,,0.00,,2013-02-22 08:52:00,
2013-02-22 04:03:00,39.0,30.0,30.30,NNE,30,1.0,4.0,70,0.00,,,0.00,,2013-02-22 09:03:00,
2013-02-22 04:11:00,39.0,29.0,30.33,NNW,330,0.0,4.0,67,0.00,,,0.00,,2013-02-22 09:11:00,
2013-02-22 04:22:00,39.0,29.0,30.33,NNW,330,0.0,4.0,67,0.00,,,0.00,,2013-02-22 09:22:00,
2013-02-22 04:32:00,39.0,29.0,30.33,North,352,1.0,6.0,67,0.00,,,0.00,,2013-02-22 09:32:00,
2013-02-22 04:42:00,39.0,29.0,30.33,North,352,1.0,6.0,67,0.00,,,0.00,,2013-02-22 09:42:00,
2013-02-22 04:51:00,38.0,28.0,30.33,WNW,294,0.0,4.0,68,0.00,,,0.00,,2013-02-22 09:51:00,
2013-02-22 05:01:00,38.0,28.0,30.33,NNW,347,2.0,6.0,68,0.00,,,0.00,,2013-02-22 10:01:00,
2013-02-22 05:11:00,38.0,28.0,30.33,NNW,347,2.0,6.0,68,0.00,,,0.00,,2013-02-22 10:11:00,
2013-02-22 05:21:00,38.0,30.0,30.32,North,352,1.0,5.0,73,0.00,,,0.00,,2013-02-22 10:21:00,
2013-02-22 05:32:00,37.0,30.0,30.32,NNW,333,1.0,4.0,76,0.00,,,0.00,,2013-02-22 10:32:00,
2013-02-22 05:42:00,37.0,30.0,30.32,NNW,333,1.0,4.0,76,0.00,,,0.00,,2013-02-22 10:42:00,
2013-02-22 05:51:00,37.0,30.0,30.32,West,260,0.0,5.0,77,0.00,,,0.00,,2013-02-22 10:51:00,
2013-02-22 06:01:00,37.0,30.0,30.34,NNE,27,0.0,3.0,77,0.00,,,0.00,,2013-02-22 11:01:00,
2013-02-22 06:11:00,37.0,30.0,30.34,NNE,27,0.0,3.0,77,0.00,,,0.00,,2013-02-22 11:11:00,
2013-02-22 06:22:00,37.0,30.0,30.34,NW,307,0.0,4.0,77,0.00,,,0.00,,2013-02-22 11:22:00,
2013-02-22 06:32:00,37.0,31.0,30.35,NNW,328,0.0,2.0,78,0.00,,,0.00,,2013-02-22 11:32:00,
2013-02-22 06:42:00,37.0,31.0,30.35,NNW,328,0.0,2.0,78,0.00,,,0.00,,2013-02-22 11:42:00,
2013-02-22 06:52:00,37.0,31.0,30.36,North,356,0.0,3.0,78,0.00,,,0.00,,2013-02-22 11:52:00,
2013-02-22 07:02:00,36.0,30.0,30.37,North,5,0.0,2.0,79,0.00,,,0.00,,2013-02-22 12:02:00,
2013-02-22 07:11:00,36.0,30.0,30.37,North,5,0.0,2.0,79,0.00,,,0.00,,2013-02-22 12:11:00,
2013-02-22 07:22:00,36.0,30.0,30.34,SE,124,0.0,3.0,79,0.00,,,0.00,,2013-02-22 12:22:00,
2013-02-22 07:32:00,36.0,30.0,30.32,NNW,335,1.0,3.0,80,0.00,,,0.00,,2013-02-22 12:32:00,
2013-02-22 07:42:00,36.0,30.0,30.32,NNW,335,1.0,3.0,80,0.00,,,0.00,,2013-02-22 12:42:00,
2013-02-22 07:52:00,36.0,30.0,30.32,East,80,0.0,5.0,80,0.00,,,0.00,,2013-02-22 12:52:00,
2013-02-22 08:02:00,37.0,32.0,30.32,NE,34,5.0,15.0,82,0.00,,,0.00,,2013-02-22 13:02:00,
2013-02-22 08:11:00,37.0,32.0,30.32,NE,34,5.0,15.0,82,0.00,,,0.00,,2013-02-22 13:11:00,
2013-02-22 08:22:00,39.0,34.0,30.29,NNE,19,10.0,14.0,83,0.00,,,0.00,,2013-02-22 13:22:00,
2013-02-22 08:32:00,39.0,34.0,30.31,East,80,11.0,17.0,82,0.00,,,0.00,,2013-02-22 13:32:00,
2013-02-22 08:42:00,39.0,34.0,30.31,East,80,11.0,17.0,82,0.00,,,0.00,,2013-02-22 13:42:00,
2013-02-22 08:52:00,39.0,34.0,30.32,East,87,5.0,13.0,82,0.00,,,0.00,,2013-02-22 13:52:00,
2013-02-22 09:01:00,39.0,34.0,30.35,ENE,70,2.0,9.0,81,0.00,,,0.00,,2013-02-22 14:01:00,
2013-02-22 09:11:00,39.0,34.0,30.35,NNW,348,1.0,10.0,82,0.00,,,0.00,,2013-02-22 14:11:00,
2013-02-22 09:21:00,39.0,34.0,30.35,NNW,348,1.0,10.0,82,0.00,,,0.00,,2013-02-22 14:21:00,
2013-02-22 09:32:00,40.0,34.0,30.35,East,79,1.0,5.0,80,0.00,,,0.00,,2013-02-22 14:32:00,
2013-02-22 09:42:00,40.0,34.0,30.35,East,79,1.0,5.0,80,0.00,,,0.00,,2013-02-22 14:42:00,
2013-02-22 09:52:00,40.0,34.0,30.35,ESE,108,1.0,5.0,80,0.00,,,0.00,,2013-02-22 14:52:00,
2013-02-22 10:02:00,40.0,34.0,30.34,East,82,0.0,3.0,80,0.00,,,0.00,,2013-02-22 15:02:00,
2013-02-22 10:11:00,40.0,34.0,30.34,East,82,0.0,3.0,80,0.00,,,0.00,,2013-02-22 15:11:00,
2013-02-22 10:22:00,41.0,35.0,30.33,NE,44,2.0,8.0,80,0.00,,,0.00,,2013-02-22 15:22:00,
2013-02-22 10:32:00,41.0,35.0,30.34,ENE,63,2.0,6.0,79,0.00,,,0.00,,2013-02-22 15:32:00,
2013-02-22 10:42:00,41.0,35.0,30.34,ENE,63,2.0,6.0,79,0.00,,,0.00,,2013-02-22 15:42:00,
2013-02-22 10:52:00,42.0,36.0,30.35,WSW,238,1.0,6.0,78,0.00,,,0.00,,2013-02-22 15:52:00,
2013-02-22 11:02:00,42.0,36.0,30.35,ENE,59,6.0,10.0,79,0.00,,,0.00,,2013-02-22 16:02:00,
2013-02-22 11:12:00,42.0,36.0,30.34,ENE,68,3.0,9.0,79,0.00,,,0.00,,2013-02-22 16:12:00,
2013-02-22 11:22:00,42.0,36.0,30.34,ENE,68,3.0,9.0,79,0.00,,,0.00,,2013-02-22 16:22:00,
2013-02-22 11:32:00,41.0,35.0,30.32,NE,49,2.0,6.0,80,0.00,,,0.00,,2013-02-22 16:32:00,
2013-02-22 11:42:00,41.0,35.0,30.32,NE,49,2.0,6.0,80,0.00,,,0.00,,2013-02-22 16:42:00,
2013-02-22 11:52:00,41.0,36.0,30.30,East,79,4.0,9.0,82,0.00,,,0.00,,2013-02-22 16:52:00,
2013-02-22 12:01:00,42.0,37.0,30.30,East,98,4.0,10.0,82,0.00,,,0.00,,2013-02-22 17:01:00,
2013-02-22 12:11:00,42.0,37.0,30.30,East,98,4.0,10.0,82,0.00,,,0.00,,2013-02-22 17:11:00,
2013-02-22 12:22:00,43.0,37.0,30.33,NE,56,2.0,7.0,80,0.00,,,0.00,,2013-02-22 17:22:00,
2013-02-22 12:32:00,43.0,37.0,30.32,ENE,74,2.0,11.0,80,0.00,,,0.00,,2013-02-22 17:32:00,
2013-02-22 12:42:00,43.0,37.0,30.32,ENE,74,2.0,11.0,80,0.00,,,0.00,,2013-02-22 17:42:00,
2013-02-22 12:52:00,43.0,38.0,30.30,ENE,76,2.0,8.0,81,0.00,,,0.00,,2013-02-22 17:52:00,
2013-02-22 13:01:00,43.0,38.0,30.31,SE,130,0.0,8.0,81,0.00,,,0.00,,2013-02-22 18:01:00,
2013-02-22 13:12:00,43.0,38.0,30.29,East,95,2.0,8.0,81,0.00,,,0.00,,2013-02-22 18:12:00,
2013-02-22 13:22:00,43.0,38.0,30.29,East,95,2.0,8.0,81,0.00,,,0.00,,2013-02-22 18:22:00,
2013-02-22 13:32:00,43.0,38.0,30.28,SE,127,1.0,3.0,81,0.00,,,0.00,,2013-02-22 18:32:00,
2013-02-22 13:42:00,43.0,38.0,30.28,SE,127,1.0,3.0,81,0.00,,,0.00,,2013-02-22 18:42:00,
2013-02-22 13:52:00,44.0,39.0,30.27,East,84,3.0,6.0,81,0.00,,,0.00,,2013-02-22 18:52:00,
2013-02-22 14:01:00,44.0,38.0,30.26,East,94,1.0,7.0,80,0.00,,,0.00,,2013-02-22 19:01:00,
2013-02-22 14:11:00,44.0,38.0,30.25,East,83,3.0,7.0,80,0.00,,,0.00,,2013-02-22 19:11:00,
2013-02-22 14:21:00,44.0,38.0,30.25,East,83,3.0,7.0,80,0.00,,,0.00,,2013-02-22 19:21:00,
2013-02-22 14:31:00,44.0,39.0,30.25,East,81,1.0,7.0,81,0.00,,,0.00,,2013-02-22 19:31:00,
2013-02-22 14:41:00,44.0,39.0,30.26,NNE,15,0.0,4.0,81,0.00,,,0.00,,2013-02-22 19:41:00,
2013-02-22 14:52:00,44.0,39.0,30.26,NNE,15,0.0,4.0,81,0.00,,,0.00,,2013-02-22 19:52:00,
2013-02-22 15:01:00,44.0,39.0,30.26,NW,315,0.0,2.0,82,0.00,,,0.00,,2013-02-22 20:01:00,
2013-02-22 15:11:00,44.0,39.0,30.26,NW,315,0.0,2.0,82,0.00,,,0.00,,2013-02-22 20:11:00,
2013-02-22 15:21:00,44.0,39.0,30.25,NE,56,0.0,4.0,81,0.00,,,0.00,,2013-02-22 20:21:00,
2013-02-22 15:32:00,45.0,40.0,30.24,SW,219,0.0,4.0,81,0.00,,,0.00,,2013-02-22 20:32:00,
2013-02-22 15:42:00,45.0,40.0,30.24,SW,219,0.0,4.0,81,0.00,,,0.00,,2013-02-22 20:42:00,
2013-02-22 15:52:00,44.0,39.0,30.23,NE,47,0.0,2.0,82,0.00,,,0.00,,2013-02-22 20:52:00,
2013-02-22 16:01:00,44.0,39.0,30.22,East,87,0.0,3.0,82,0.00,,,0.00,,2013-02-22 21:01:00,
2013-02-22 16:11:00,45.0,40.0,30.22,ENE,69,0.0,3.0,82,0.00,,,0.00,,2013-02-22 21:11:00,
2013-02-22 16:21:00,45.0,40.0,30.22,ENE,69,0.0,3.0,82,0.00,,,0.00,,2013-02-22 21:21:00,
2013-02-22 16:32:00,45.0,40.0,30.22,NE,51,0.0,2.0,83,0.00,,,0.00,,2013-02-22 21:32:00,
2013-02-22 16:42:00,45.0,40.0,30.22,NE,51,0.0,2.0,83,0.00,,,0.00,,2013-02-22 21:42:00,
2013-02-22 16:52:00,45.0,40.0,30.22,East,84,0.0,2.0,84,0.00,,,0.00,,2013-02-22 21:52:00,
2013-02-22 17:01:00,45.0,41.0,30.22,North,349,0.0,1.0,85,0.00,,,0.00,,2013-02-22 22:01:00,
2013-02-22 17:11:00,45.0,41.0,30.22,North,349,0.0,1.0,85,0.00,,,0.00,,2013-02-22 22:11:00,
2013-02-22 17:21:00,45.0,41.0,30.20,ENE,68,0.0,2.0,85,0.00,,,0.00,,2013-02-22 22:21:00,
2013-02-22 17:32:00,45.0,40.0,30.22,NW,312,0.0,1.0,84,0.00,,,0.00,,2013-02-22 22:32:00,
2013-02-22 17:42:00,45.0,40.0,30.22,NW,312,0.0,1.0,84,0.00,,,0.00,,2013-02-22 22:42:00,
2013-02-22 17:52:00,45.0,40.0,30.22,East,91,0.0,2.0,84,0.00,,,0.00,,2013-02-22 22:52:00,
2013-02-22 18:01:00,45.0,41.0,30.21,SSW,201,0.0,2.0,85,0.00,,,0.00,,2013-02-22 23:01:00,
2013-02-22 18:11:00,45.0,41.0,30.21,SSW,201,0.0,2.0,85,0.00,,,0.00,,2013-02-22 23:11:00,
2013-02-22 18:21:00,45.0,41.0,30.22,NNE,30,0.0,2.0,86,0.00,,,0.00,,2013-02-22 23:21:00,
2013-02-22 18:32:00,45.0,41.0,30.21,North,11,0.0,2.0,87,0.00,,,0.00,,2013-02-22 23:32:00,
2013-02-22 18:42:00,45.0,41.0,30.21,North,11,0.0,2.0,87,0.00,,,0.00,,2013-02-22 23:42:00,
2013-02-22 18:52:00,45.0,42.0,30.21,ENE,72,0.0,2.0,88,0.00,,,0.00,,2013-02-22 23:52:00,
2013-02-22 19:02:00,45.0,42.0,30.21,WNW,300,0.0,2.0,88,0.00,,,0.00,,2013-02-23 00:02:00,
2013-02-22 19:11:00,45.0,42.0,30.21,SE,141,0.0,4.0,89,0.00,,,0.00,,2013-02-23 00:11:00,
2013-02-22 19:21:00,45.0,42.0,30.21,SE,141,0.0,4.0,89,0.00,,,0.00,,2013-02-23 00:21:00,
2013-02-22 19:32:00,45.0,42.0,30.21,North,11,1.0,4.0,89,0.00,,,0.00,,2013-02-23 00:32:00,
2013-02-22 19:42:00,45.0,42.0,30.21,North,11,1.0,4.0,89,0.00,,,0.00,,2013-02-23 00:42:00,
2013-02-22 19:52:00,45.0,42.0,30.20,ENE,77,0.0,3.0,89,0.00,,,0.00,,2013-02-23 00:52:00,
2013-02-22 20:01:00,45.0,42.0,30.21,NE,56,1.0,4.0,90,0.00,,,0.00,,2013-02-23 01:01:00,
2013-02-22 20:11:00,45.0,42.0,30.21,NE,56,1.0,4.0,90,0.00,,,0.00,,2013-02-23 01:11:00,
2013-02-22 20:21:00,45.0,42.0,30.21,ENE,65,0.0,4.0,90,0.00,,,0.00,,2013-02-23 01:21:00,
2013-02-22 20:32:00,45.0,42.0,30.20,NE,45,1.0,4.0,90,0.00,,,0.00,,2013-02-23 01:32:00,
2013-02-22 20:42:00,45.0,42.0,30.20,NE,45,1.0,4.0,90,0.00,,,0.00,,2013-02-23 01:42:00,
2013-02-22 20:52:00,45.0,43.0,30.20,NNE,25,1.0,2.0,91,0.00,,,0.00,,2013-02-23 01:52:00,
2013-02-22 21:01:00,45.0,43.0,30.19,NE,54,1.0,3.0,91,0.00,,,0.00,,2013-02-23 02:01:00,
2013-02-22 21:11:00,45.0,43.0,30.19,NE,49,1.0,4.0,92,0.00,,,0.00,,2013-02-23 02:11:00,
2013-02-22 21:21:00,45.0,43.0,30.19,NE,49,1.0,4.0,92,0.00,,,0.00,,2013-02-23 02:21:00,
2013-02-22 21:32:00,45.0,43.0,30.20,ENE,63,1.0,2.0,93,0.00,,,0.00,,2013-02-23 02:32:00,
2013-02-22 21:42:00,45.0,43.0,30.20,ENE,63,1.0,2.0,93,0.00,,,0.00,,2013-02-23 02:42:00,
2013-02-22 21:52:00,46.0,44.0,30.18,ENE,72,6.0,10.0,93,0.00,,,0.00,,2013-02-23 02:52:00,
2013-02-22 22:02:00,46.0,44.0,30.18,ENE,68,6.0,10.0,94,0.00,,,0.00,,2013-02-23 03:02:00,
2013-02-22 22:11:00,46.0,44.0,30.18,ENE,68,6.0,10.0,94,0.00,,,0.00,,2013-02-23 03:11:00,
2013-02-22 22:21:00,46.0,44.0,30.18,ENE,75,2.0,5.0,94,0.00,,,0.00,,2013-02-23 03:21:00,
2013-02-22 22:32:00,46.0,44.0,30.16,ENE,72,2.0,9.0,94,0.00,,,0.00,,2013-02-23 03:32:00,
2013-02-22 22:42:00,46.0,44.0,30.16,ENE,72,2.0,9.0,94,0.00,,,0.00,,2013-02-23 03:42:00,
2013-02-22 22:52:00,46.0,44.0,30.16,East,95,2.0,6.0,94,0.00,,,0.00,,2013-02-23 03:52:00,
2013-02-22 23:01:00,47.0,46.0,30.15,ENE,60,2.0,6.0,95,0.00,,,0.00,,2013-02-23 04:01:00,
2013-02-22 23:11:00,47.0,46.0,30.15,ENE,72,1.0,3.0,95,0.00,,,0.00,,2013-02-23 04:11:00,
2013-02-22 23:21:00,47.0,46.0,30.15,ENE,72,1.0,3.0,95,0.00,,,0.00,,2013-02-23 04:21:00,
2013-02-22 23:32:00,47.0,46.0,30.14,ENE,69,0.0,3.0,95,0.00,,,0.00,,2013-02-23 04:32:00,
2013-02-22 23:42:00,47.0,46.0,30.14,ENE,69,0.0,3.0,95,0.00,,,0.00,,2013-02-23 04:42:00,
2013-02-22 23:52:00,47.0,46.0,30.13,NNE,15,0.0,1.0,95,0.00,,,0.00,,2013-02-23 04:52:00,